Eurocargo Valencia — IBGZ — position and weather

sailwx.info

Track history (hours):
 
Tides and Currents Weather Stations Pressure Air Temp Water Temp Dewpoint Dewpoint Depression Visibility Wind Speed Wind Dir Waves Ship Positions

Eurocargo Valencia

Last reported at 2017-Nov-19 14:59 UTC. Time now 2017-Nov-20 15:49 UTC.
Position N 42°57' E 010°03'.

Length 196 m; draft 6.6 m.

Type: Ship (hazmat cat A). MMSI: 247579000.

Date/timePositionNaut miles runAvg speedWind from/ knotsBaromVisibWave heightAir tempDewpointWater temp
2017-Nov-19 14:59N 42°57' E 010°03'817.1
2017-Nov-19 14:30N 43°05' E 010°05'816.6
2017-Nov-19 14:00N 43°13' E 010°07'917.1
2017-Nov-19 13:31N 43°21' E 010°09'816.9
2017-Nov-19 13:01N 43°30' E 010°12'5 9.9
2017-Nov-19 12:31N 43°32' E 010°17'3 5.0
2017-Nov-19 12:00N 43°35' E 010°19'0 0.1
2017-Nov-19 11:29N 43°35' E 010°19'0 0.0
2017-Nov-19 10:53N 43°35' E 010°19'0 0.0
2017-Nov-19 10:29N 43°35' E 010°19'0 0.0
2017-Nov-19 09:59N 43°35' E 010°19'0 0.0
2017-Nov-19 09:29N 43°35' E 010°19'0 0.0
2017-Nov-19 08:59N 43°35' E 010°19'0 0.0
2017-Nov-19 08:29N 43°35' E 010°19'0 0.0
2017-Nov-19 07:59N 43°35' E 010°19'0 0.0
2017-Nov-19 07:29N 43°35' E 010°19'0 0.0
2017-Nov-19 06:59N 43°35' E 010°19'0 0.0
2017-Nov-19 06:29N 43°35' E 010°19'0 0.0
2017-Nov-19 05:59N 43°35' E 010°19'0 0.0
2017-Nov-19 05:29N 43°35' E 010°19'0 0.0
2017-Nov-19 04:59N 43°35' E 010°19'1 2.6
2017-Nov-19 04:30N 43°34' E 010°18'4 7.4
2017-Nov-19 04:00N 43°31' E 010°15'5 9.5
2017-Nov-19 03:30N 43°26' E 010°13'611.5
2017-Nov-19 03:01N 43°21' E 010°11'714.6
2017-Nov-19 02:30N 43°14' E 010°09'715.0
2017-Nov-19 02:00N 43°06' E 010°07'24814.7
2017-Nov-18 09:08N 38°59' E 009°33'214.0
2017-Nov-18 08:57N 38°59' E 009°30'715.7
2017-Nov-18 08:30N 39°03' E 009°22'815.4
2017-Nov-18 08:00N 39°07' E 009°13'713.9
2017-Nov-18 07:31N 39°11' E 009°07'2 3.1
2017-Nov-18 07:00N 39°13' E 009°06'0 0.0
2017-Nov-18 06:30N 39°13' E 009°06'0 0.0
2017-Nov-18 06:00N 39°13' E 009°06'0 0.0
2017-Nov-18 05:30N 39°13' E 009°06'0 0.0
2017-Nov-18 05:00N 39°13' E 009°06'0 0.0
2017-Nov-18 04:30N 39°13' E 009°06'0 0.0
2017-Nov-18 04:00N 39°13' E 009°06'0 0.0
2017-Nov-18 03:30N 39°13' E 009°06'0 0.0
2017-Nov-18 03:00N 39°13' E 009°06'0 0.0
2017-Nov-18 02:30N 39°13' E 009°06'0 0.0
2017-Nov-18 02:00N 39°13' E 009°06'0 0.0
2017-Nov-18 01:30N 39°13' E 009°06'0 0.0
2017-Nov-18 01:00N 39°13' E 009°06'0 0.3
2017-Nov-18 00:30N 39°13' E 009°06'4 7.9
2017-Nov-17 23:59N 39°09' E 009°09'815.9
2017-Nov-17 23:29N 39°05' E 009°18'715.1
2017-Nov-17 23:00N 39°01' E 009°26'23615.4
2017-Nov-17 07:41N 42°56' E 010°03'317.5
2017-Nov-17 07:30N 42°59' E 010°04'1017.3
2017-Nov-17 06:55N 43°09' E 010°06'717.0
2017-Nov-17 06:30N 43°16' E 010°08'916.8
2017-Nov-17 06:00N 43°24' E 010°10'815.7
2017-Nov-17 05:30N 43°31' E 010°14'4 7.8
2017-Nov-17 05:00N 43°34' E 010°18'1 2.2
2017-Nov-17 04:27N 43°35' E 010°19'0 0.0
2017-Nov-17 03:57N 43°35' E 010°19'0 0.0
2017-Nov-17 03:31N 43°35' E 010°19'0 0.0
2017-Nov-17 03:01N 43°35' E 010°19'0 0.0
2017-Nov-17 02:31N 43°35' E 010°19'0 0.0
2017-Nov-17 02:01N 43°35' E 010°19'0 0.0
2017-Nov-17 01:31N 43°35' E 010°19'0 0.0
2017-Nov-17 01:01N 43°35' E 010°19'0 0.0
2017-Nov-17 00:31N 43°35' E 010°19'0 0.0
2017-Nov-17 00:01N 43°35' E 010°19'0 0.5
2017-Nov-16 23:30N 43°34' E 010°19'4 7.4
2017-Nov-16 23:00N 43°32' E 010°16'611.2
2017-Nov-16 22:30N 43°26' E 010°13'816.4
2017-Nov-16 22:00N 43°18' E 010°10'816.5
2017-Nov-16 21:30N 43°10' E 010°08'816.1
2017-Nov-16 21:00N 43°02' E 010°06'23815.7
2017-Nov-16 05:55N 39°06' E 009°42'914.3
2017-Nov-16 05:17N 38°59' E 009°34'414.2
2017-Nov-16 05:00N 38°60' E 009°29'816.4
2017-Nov-16 04:30N 39°04' E 009°20'816.3
2017-Nov-16 04:00N 39°08' E 009°10'510.6
2017-Nov-16 03:30N 39°13' E 009°06'0 0.1
2017-Nov-16 02:59N 39°13' E 009°06'0 0.0
2017-Nov-16 02:29N 39°13' E 009°06'0 0.0
2017-Nov-16 01:59N 39°13' E 009°06'0 0.0
2017-Nov-16 01:29N 39°13' E 009°06'0 0.0
2017-Nov-16 00:59N 39°13' E 009°06'0 0.0
2017-Nov-16 00:29N 39°13' E 009°06'0 0.0
2017-Nov-15 23:59N 39°13' E 009°06'0 0.0
2017-Nov-15 23:29N 39°13' E 009°06'0 0.0
2017-Nov-15 22:59N 39°13' E 009°06'0 0.0
2017-Nov-15 22:29N 39°13' E 009°06'0 0.0
2017-Nov-15 22:00N 39°13' E 009°06'0 0.0
2017-Nov-15 21:30N 39°13' E 009°06'0 0.7
2017-Nov-15 21:00N 39°12' E 009°07'5 9.7
2017-Nov-15 20:29N 39°08' E 009°10'816.7
2017-Nov-15 19:59N 39°05' E 009°20'917.4
2017-Nov-15 19:28N 38°59' E 009°30'23816.3
2017-Nov-15 04:52N 42°56' E 010°02'717.2
2017-Nov-15 04:27N 43°03' E 010°04'817.0
2017-Nov-15 04:00N 43°11' E 010°06'916.6
2017-Nov-15 03:28N 43°19' E 010°09'816.4
2017-Nov-15 03:00N 43°27' E 010°11'612.5
2017-Nov-15 02:30N 43°32' E 010°16'3 5.8
2017-Nov-15 02:00N 43°34' E 010°19'1 1.2
2017-Nov-15 01:29N 43°35' E 010°19'0 0.0
2017-Nov-15 00:59N 43°35' E 010°19'0 0.0
2017-Nov-15 00:29N 43°35' E 010°19'0 0.0
2017-Nov-14 23:59N 43°35' E 010°19'0 0.0
2017-Nov-14 23:29N 43°35' E 010°19'0 0.0
2017-Nov-14 22:59N 43°35' E 010°19'0 0.0
2017-Nov-14 22:29N 43°35' E 010°19'0 0.0
2017-Nov-14 21:59N 43°35' E 010°19'0 0.0
2017-Nov-14 21:29N 43°35' E 010°19'0 0.0
2017-Nov-14 20:59N 43°35' E 010°19'0 0.0
2017-Nov-14 20:29N 43°35' E 010°19'0 0.0
2017-Nov-14 19:59N 43°35' E 010°19'0 0.0
2017-Nov-14 19:29N 43°35' E 010°19'0 0.0
2017-Nov-14 18:59N 43°35' E 010°19'2 5.1
2017-Nov-14 18:30N 43°33' E 010°17'2 3.7
2017-Nov-14 18:00N 43°31' E 010°16'2 4.5
2017-Nov-14 17:31N 43°30' E 010°14'4 8.8
2017-Nov-14 17:00N 43°25' E 010°14'510.0
2017-Nov-14 16:31N 43°20' E 010°16'612.7
2017-Nov-14 16:01N 43°14' E 010°18'713.2
2017-Nov-14 15:30N 43°08' E 010°21'3713.7
2017-Nov-14 12:50N 42°32' E 010°33'21014.5
2017-Nov-13 22:19N 39°06' E 009°42'916.4
2017-Nov-13 21:45N 38°59' E 009°34'235 7.3
2017-Nov-12 13:24N 42°53' E 010°02'717.0
2017-Nov-12 13:01N 42°60' E 010°04'917.0
2017-Nov-12 12:30N 43°08' E 010°06'816.4
2017-Nov-12 12:01N 43°16' E 010°08'816.0
2017-Nov-12 11:31N 43°24' E 010°10'815.4
2017-Nov-12 11:01N 43°31' E 010°14'4 7.7
2017-Nov-12 10:31N 43°34' E 010°18'1 2.1
2017-Nov-12 10:00N 43°34' E 010°19'0 0.7
2017-Nov-12 09:22N 43°35' E 010°19'0 0.0
2017-Nov-12 08:58N 43°35' E 010°19'0 0.0
2017-Nov-12 08:28N 43°35' E 010°19'0 0.0
2017-Nov-12 07:58N 43°35' E 010°19'0 0.0
2017-Nov-12 07:19N 43°35' E 010°19'0 0.0
2017-Nov-12 06:58N 43°35' E 010°19'0 0.0
2017-Nov-12 06:28N 43°35' E 010°19'0 0.0
2017-Nov-12 05:58N 43°35' E 010°19'0 0.0
2017-Nov-12 05:25N 43°35' E 010°19'0 0.0
2017-Nov-12 05:00N 43°35' E 010°19'2 4.8
2017-Nov-12 04:30N 43°33' E 010°17'3 6.6
2017-Nov-12 04:00N 43°30' E 010°14'4 9.0
2017-Nov-12 03:30N 43°26' E 010°13'5 9.1
2017-Nov-12 03:00N 43°22' E 010°11'714.7
2017-Nov-12 02:31N 43°14' E 010°09'814.5
2017-Nov-12 01:56N 43°06' E 010°07'24814.3
2017-Nov-11 08:37N 38°59' E 009°33'213.9
2017-Nov-11 08:29N 38°59' E 009°31'714.7
2017-Nov-11 08:00N 39°02' E 009°23'714.9
2017-Nov-11 07:30N 39°06' E 009°15'714.4
2017-Nov-11 07:00N 39°10' E 009°07'2 4.3
2017-Nov-11 06:29N 39°13' E 009°06'0 0.0
2017-Nov-11 05:59N 39°13' E 009°06'0 0.0
2017-Nov-11 05:29N 39°13' E 009°06'0 0.0
2017-Nov-11 04:59N 39°13' E 009°06'0 0.0
2017-Nov-11 04:29N 39°13' E 009°06'0 0.0
2017-Nov-11 03:59N 39°13' E 009°06'0 0.0
2017-Nov-11 03:29N 39°13' E 009°06'0 0.0
2017-Nov-11 02:59N 39°13' E 009°06'0 0.0
2017-Nov-11 02:29N 39°13' E 009°06'0 0.0
2017-Nov-11 01:59N 39°13' E 009°06'0 0.0
2017-Nov-11 01:29N 39°13' E 009°06'0 0.0
2017-Nov-11 00:59N 39°13' E 009°06'0 0.0
2017-Nov-11 00:29N 39°13' E 009°06'1 1.8
2017-Nov-11 00:00N 39°12' E 009°06'4 7.9
2017-Nov-10 23:31N 39°09' E 009°10'5 9.9
2017-Nov-10 23:00N 39°07' E 009°16'612.7
2017-Nov-10 22:30N 39°03' E 009°23'23215.6
2017-Nov-10 07:41N 42°53' E 010°03'317.0
2017-Nov-10 07:30N 42°56' E 010°03'917.0
2017-Nov-10 06:59N 43°05' E 010°05'816.7
2017-Nov-10 06:31N 43°13' E 010°07'816.5
2017-Nov-10 06:00N 43°21' E 010°09'816.6
2017-Nov-10 05:31N 43°29' E 010°12'510.4
2017-Nov-10 05:00N 43°32' E 010°17'3 5.0
2017-Nov-10 04:29N 43°35' E 010°19'0 0.1
2017-Nov-10 03:59N 43°35' E 010°19'0 0.0
2017-Nov-10 03:26N 43°35' E 010°19'0 0.0
2017-Nov-10 02:59N 43°35' E 010°19'0 0.0
2017-Nov-10 02:29N 43°35' E 010°19'0 0.0
2017-Nov-10 01:59N 43°35' E 010°19'0 0.0
2017-Nov-10 01:29N 43°35' E 010°19'0 0.0
2017-Nov-10 00:59N 43°35' E 010°19'0 0.0
2017-Nov-10 00:14N 43°35' E 010°19'0 0.0
2017-Nov-09 23:59N 43°35' E 010°19'0 0.5
2017-Nov-09 23:30N 43°35' E 010°19'3 6.7
2017-Nov-09 23:01N 43°32' E 010°16'3 6.5
2017-Nov-09 22:31N 43°29' E 010°14'714.5
2017-Nov-09 22:01N 43°22' E 010°11'814.9
2017-Nov-09 21:30N 43°15' E 010°09'714.7
2017-Nov-09 21:01N 43°08' E 010°07'  
Track history (hours):
 
Tides and Currents Weather Stations Pressure Air Temp Water Temp Dewpoint Dewpoint Depression Visibility Wind Speed Wind Dir Waves Ship Positions

Eurocargo Valencia

Last reported at 2017-Nov-19 14:59 UTC. Time now 2017-Nov-20 15:49 UTC.
Position N 42°57' E 010°03'.

Length 196 m; draft 6.6 m.

Type: Ship (hazmat cat A). MMSI: 247579000.

Date/timePositionNaut miles runAvg speedWind from/ knotsBaromVisibWave heightAir tempDewpointWater temp
2017-Nov-19 14:59N 42°57' E 010°03'817.1
2017-Nov-19 14:30N 43°05' E 010°05'816.6
2017-Nov-19 14:00N 43°13' E 010°07'917.1
2017-Nov-19 13:31N 43°21' E 010°09'816.9
2017-Nov-19 13:01N 43°30' E 010°12'5 9.9
2017-Nov-19 12:31N 43°32' E 010°17'3 5.0
2017-Nov-19 12:00N 43°35' E 010°19'0 0.1
2017-Nov-19 11:29N 43°35' E 010°19'0 0.0
2017-Nov-19 10:53N 43°35' E 010°19'0 0.0
2017-Nov-19 10:29N 43°35' E 010°19'0 0.0
2017-Nov-19 09:59N 43°35' E 010°19'0 0.0
2017-Nov-19 09:29N 43°35' E 010°19'0 0.0
2017-Nov-19 08:59N 43°35' E 010°19'0 0.0
2017-Nov-19 08:29N 43°35' E 010°19'0 0.0
2017-Nov-19 07:59N 43°35' E 010°19'0 0.0
2017-Nov-19 07:29N 43°35' E 010°19'0 0.0
2017-Nov-19 06:59N 43°35' E 010°19'0 0.0
2017-Nov-19 06:29N 43°35' E 010°19'0 0.0
2017-Nov-19 05:59N 43°35' E 010°19'0 0.0
2017-Nov-19 05:29N 43°35' E 010°19'0 0.0
2017-Nov-19 04:59N 43°35' E 010°19'1 2.6
2017-Nov-19 04:30N 43°34' E 010°18'4 7.4
2017-Nov-19 04:00N 43°31' E 010°15'5 9.5
2017-Nov-19 03:30N 43°26' E 010°13'611.5
2017-Nov-19 03:01N 43°21' E 010°11'714.6
2017-Nov-19 02:30N 43°14' E 010°09'715.0
2017-Nov-19 02:00N 43°06' E 010°07'24814.7
2017-Nov-18 09:08N 38°59' E 009°33'214.0
2017-Nov-18 08:57N 38°59' E 009°30'715.7
2017-Nov-18 08:30N 39°03' E 009°22'815.4
2017-Nov-18 08:00N 39°07' E 009°13'713.9
2017-Nov-18 07:31N 39°11' E 009°07'2 3.1
2017-Nov-18 07:00N 39°13' E 009°06'0 0.0
2017-Nov-18 06:30N 39°13' E 009°06'0 0.0
2017-Nov-18 06:00N 39°13' E 009°06'0 0.0
2017-Nov-18 05:30N 39°13' E 009°06'0 0.0
2017-Nov-18 05:00N 39°13' E 009°06'0 0.0
2017-Nov-18 04:30N 39°13' E 009°06'0 0.0
2017-Nov-18 04:00N 39°13' E 009°06'0 0.0
2017-Nov-18 03:30N 39°13' E 009°06'0 0.0
2017-Nov-18 03:00N 39°13' E 009°06'0 0.0
2017-Nov-18 02:30N 39°13' E 009°06'0 0.0
2017-Nov-18 02:00N 39°13' E 009°06'0 0.0
2017-Nov-18 01:30N 39°13' E 009°06'0 0.0
2017-Nov-18 01:00N 39°13' E 009°06'0 0.3
2017-Nov-18 00:30N 39°13' E 009°06'4 7.9
2017-Nov-17 23:59N 39°09' E 009°09'815.9
2017-Nov-17 23:29N 39°05' E 009°18'715.1
2017-Nov-17 23:00N 39°01' E 009°26'23615.4
2017-Nov-17 07:41N 42°56' E 010°03'317.5
2017-Nov-17 07:30N 42°59' E 010°04'1017.3
2017-Nov-17 06:55N 43°09' E 010°06'717.0
2017-Nov-17 06:30N 43°16' E 010°08'916.8
2017-Nov-17 06:00N 43°24' E 010°10'815.7
2017-Nov-17 05:30N 43°31' E 010°14'4 7.8
2017-Nov-17 05:00N 43°34' E 010°18'1 2.2
2017-Nov-17 04:27N 43°35' E 010°19'0 0.0
2017-Nov-17 03:57N 43°35' E 010°19'0 0.0
2017-Nov-17 03:31N 43°35' E 010°19'0 0.0
2017-Nov-17 03:01N 43°35' E 010°19'0 0.0
2017-Nov-17 02:31N 43°35' E 010°19'0 0.0
2017-Nov-17 02:01N 43°35' E 010°19'0 0.0
2017-Nov-17 01:31N 43°35' E 010°19'0 0.0
2017-Nov-17 01:01N 43°35' E 010°19'0 0.0
2017-Nov-17 00:31N 43°35' E 010°19'0 0.0
2017-Nov-17 00:01N 43°35' E 010°19'0 0.5
2017-Nov-16 23:30N 43°34' E 010°19'4 7.4
2017-Nov-16 23:00N 43°32' E 010°16'611.2
2017-Nov-16 22:30N 43°26' E 010°13'816.4
2017-Nov-16 22:00N 43°18' E 010°10'816.5
2017-Nov-16 21:30N 43°10' E 010°08'816.1
2017-Nov-16 21:00N 43°02' E 010°06'23815.7
2017-Nov-16 05:55N 39°06' E 009°42'914.3
2017-Nov-16 05:17N 38°59' E 009°34'414.2
2017-Nov-16 05:00N 38°60' E 009°29'816.4
2017-Nov-16 04:30N 39°04' E 009°20'816.3
2017-Nov-16 04:00N 39°08' E 009°10'510.6
2017-Nov-16 03:30N 39°13' E 009°06'0 0.1
2017-Nov-16 02:59N 39°13' E 009°06'0 0.0
2017-Nov-16 02:29N 39°13' E 009°06'0 0.0
2017-Nov-16 01:59N 39°13' E 009°06'0 0.0
2017-Nov-16 01:29N 39°13' E 009°06'0 0.0
2017-Nov-16 00:59N 39°13' E 009°06'0 0.0
2017-Nov-16 00:29N 39°13' E 009°06'0 0.0
2017-Nov-15 23:59N 39°13' E 009°06'0 0.0
2017-Nov-15 23:29N 39°13' E 009°06'0 0.0
2017-Nov-15 22:59N 39°13' E 009°06'0 0.0
2017-Nov-15 22:29N 39°13' E 009°06'0 0.0
2017-Nov-15 22:00N 39°13' E 009°06'0 0.0
2017-Nov-15 21:30N 39°13' E 009°06'0 0.7
2017-Nov-15 21:00N 39°12' E 009°07'5 9.7
2017-Nov-15 20:29N 39°08' E 009°10'816.7
2017-Nov-15 19:59N 39°05' E 009°20'917.4
2017-Nov-15 19:28N 38°59' E 009°30'23816.3
2017-Nov-15 04:52N 42°56' E 010°02'717.2
2017-Nov-15 04:27N 43°03' E 010°04'817.0
2017-Nov-15 04:00N 43°11' E 010°06'916.6
2017-Nov-15 03:28N 43°19' E 010°09'816.4
2017-Nov-15 03:00N 43°27' E 010°11'612.5
2017-Nov-15 02:30N 43°32' E 010°16'3 5.8
2017-Nov-15 02:00N 43°34' E 010°19'1 1.2
2017-Nov-15 01:29N 43°35' E 010°19'0 0.0
2017-Nov-15 00:59N 43°35' E 010°19'0 0.0
2017-Nov-15 00:29N 43°35' E 010°19'0 0.0
2017-Nov-14 23:59N 43°35' E 010°19'0 0.0
2017-Nov-14 23:29N 43°35' E 010°19'0 0.0
2017-Nov-14 22:59N 43°35' E 010°19'0 0.0
2017-Nov-14 22:29N 43°35' E 010°19'0 0.0
2017-Nov-14 21:59N 43°35' E 010°19'0 0.0
2017-Nov-14 21:29N 43°35' E 010°19'0 0.0
2017-Nov-14 20:59N 43°35' E 010°19'0 0.0
2017-Nov-14 20:29N 43°35' E 010°19'0 0.0
2017-Nov-14 19:59N 43°35' E 010°19'0 0.0
2017-Nov-14 19:29N 43°35' E 010°19'0 0.0
2017-Nov-14 18:59N 43°35' E 010°19'2 5.1
2017-Nov-14 18:30N 43°33' E 010°17'2 3.7
2017-Nov-14 18:00N 43°31' E 010°16'2 4.5
2017-Nov-14 17:31N 43°30' E 010°14'4 8.8
2017-Nov-14 17:00N 43°25' E 010°14'510.0
2017-Nov-14 16:31N 43°20' E 010°16'612.7
2017-Nov-14 16:01N 43°14' E 010°18'713.2
2017-Nov-14 15:30N 43°08' E 010°21'3713.7
2017-Nov-14 12:50N 42°32' E 010°33'21014.5
2017-Nov-13 22:19N 39°06' E 009°42'916.4
2017-Nov-13 21:45N 38°59' E 009°34'235 7.3
2017-Nov-12 13:24N 42°53' E 010°02'717.0
2017-Nov-12 13:01N 42°60' E 010°04'917.0
2017-Nov-12 12:30N 43°08' E 010°06'816.4
2017-Nov-12 12:01N 43°16' E 010°08'816.0
2017-Nov-12 11:31N 43°24' E 010°10'815.4
2017-Nov-12 11:01N 43°31' E 010°14'4 7.7
2017-Nov-12 10:31N 43°34' E 010°18'1 2.1
2017-Nov-12 10:00N 43°34' E 010°19'0 0.7
2017-Nov-12 09:22N 43°35' E 010°19'0 0.0
2017-Nov-12 08:58N 43°35' E 010°19'0 0.0
2017-Nov-12 08:28N 43°35' E 010°19'0 0.0
2017-Nov-12 07:58N 43°35' E 010°19'0 0.0
2017-Nov-12 07:19N 43°35' E 010°19'0 0.0
2017-Nov-12 06:58N 43°35' E 010°19'0 0.0
2017-Nov-12 06:28N 43°35' E 010°19'0 0.0
2017-Nov-12 05:58N 43°35' E 010°19'0 0.0
2017-Nov-12 05:25N 43°35' E 010°19'0 0.0
2017-Nov-12 05:00N 43°35' E 010°19'2 4.8
2017-Nov-12 04:30N 43°33' E 010°17'3 6.6
2017-Nov-12 04:00N 43°30' E 010°14'4 9.0
2017-Nov-12 03:30N 43°26' E 010°13'5 9.1
2017-Nov-12 03:00N 43°22' E 010°11'714.7
2017-Nov-12 02:31N 43°14' E 010°09'814.5
2017-Nov-12 01:56N 43°06' E 010°07'24814.3
2017-Nov-11 08:37N 38°59' E 009°33'213.9
2017-Nov-11 08:29N 38°59' E 009°31'714.7
2017-Nov-11 08:00N 39°02' E 009°23'714.9
2017-Nov-11 07:30N 39°06' E 009°15'714.4
2017-Nov-11 07:00N 39°10' E 009°07'2 4.3
2017-Nov-11 06:29N 39°13' E 009°06'0 0.0
2017-Nov-11 05:59N 39°13' E 009°06'0 0.0
2017-Nov-11 05:29N 39°13' E 009°06'0 0.0
2017-Nov-11 04:59N 39°13' E 009°06'0 0.0
2017-Nov-11 04:29N 39°13' E 009°06'0 0.0
2017-Nov-11 03:59N 39°13' E 009°06'0 0.0
2017-Nov-11 03:29N 39°13' E 009°06'0 0.0
2017-Nov-11 02:59N 39°13' E 009°06'0 0.0
2017-Nov-11 02:29N 39°13' E 009°06'0 0.0
2017-Nov-11 01:59N 39°13' E 009°06'0 0.0
2017-Nov-11 01:29N 39°13' E 009°06'0 0.0
2017-Nov-11 00:59N 39°13' E 009°06'0 0.0
2017-Nov-11 00:29N 39°13' E 009°06'1 1.8
2017-Nov-11 00:00N 39°12' E 009°06'4 7.9
2017-Nov-10 23:31N 39°09' E 009°10'5 9.9
2017-Nov-10 23:00N 39°07' E 009°16'612.7
2017-Nov-10 22:30N 39°03' E 009°23'23215.6
2017-Nov-10 07:41N 42°53' E 010°03'317.0
2017-Nov-10 07:30N 42°56' E 010°03'917.0
2017-Nov-10 06:59N 43°05' E 010°05'816.7
2017-Nov-10 06:31N 43°13' E 010°07'816.5
2017-Nov-10 06:00N 43°21' E 010°09'816.6
2017-Nov-10 05:31N 43°29' E 010°12'510.4
2017-Nov-10 05:00N 43°32' E 010°17'3 5.0
2017-Nov-10 04:29N 43°35' E 010°19'0 0.1
2017-Nov-10 03:59N 43°35' E 010°19'0 0.0
2017-Nov-10 03:26N 43°35' E 010°19'0 0.0
2017-Nov-10 02:59N 43°35' E 010°19'0 0.0
2017-Nov-10 02:29N 43°35' E 010°19'0 0.0
2017-Nov-10 01:59N 43°35' E 010°19'0 0.0
2017-Nov-10 01:29N 43°35' E 010°19'0 0.0
2017-Nov-10 00:59N 43°35' E 010°19'0 0.0
2017-Nov-10 00:14N 43°35' E 010°19'0 0.0
2017-Nov-09 23:59N 43°35' E 010°19'0 0.5
2017-Nov-09 23:30N 43°35' E 010°19'3 6.7
2017-Nov-09 23:01N 43°32' E 010°16'3 6.5
2017-Nov-09 22:31N 43°29' E 010°14'714.5
2017-Nov-09 22:01N 43°22' E 010°11'814.9
2017-Nov-09 21:30N 43°15' E 010°09'714.7
2017-Nov-09 21:01N 43°08' E 010°07'  

Dump ship's entire track history